sensor_id;sensor_type;location;lat;lon;timestamp;temperature;humidity
28905;DHT22;60848;53.884;11.446;2022-07-09T00:02:19;17.10;82.00
28905;DHT22;60848;53.884;11.446;2022-07-09T00:04:48;17.10;82.10
28905;DHT22;60848;53.884;11.446;2022-07-09T00:07:16;17.10;82.20
28905;DHT22;60848;53.884;11.446;2022-07-09T00:09:47;17.10;82.40
28905;DHT22;60848;53.884;11.446;2022-07-09T00:12:15;17.10;82.30
28905;DHT22;60848;53.884;11.446;2022-07-09T00:14:43;17.10;82.30
28905;DHT22;60848;53.884;11.446;2022-07-09T00:17:12;17.10;82.20
28905;DHT22;60848;53.884;11.446;2022-07-09T00:19:40;17.10;82.30
28905;DHT22;60848;53.884;11.446;2022-07-09T00:22:09;17.10;82.20
28905;DHT22;60848;53.884;11.446;2022-07-09T00:24:37;17.10;82.30
28905;DHT22;60848;53.884;11.446;2022-07-09T00:27:05;17.10;82.20
28905;DHT22;60848;53.884;11.446;2022-07-09T00:29:34;17.10;82.10
28905;DHT22;60848;53.884;11.446;2022-07-09T00:32:02;17.10;82.10
28905;DHT22;60848;53.884;11.446;2022-07-09T00:34:33;17.10;82.10
28905;DHT22;60848;53.884;11.446;2022-07-09T00:37:04;17.10;82.10
28905;DHT22;60848;53.884;11.446;2022-07-09T00:39:33;17.10;82.00
28905;DHT22;60848;53.884;11.446;2022-07-09T00:42:02;17.10;81.90
28905;DHT22;60848;53.884;11.446;2022-07-09T00:44:31;17.00;81.90
28905;DHT22;60848;53.884;11.446;2022-07-09T00:46:59;17.10;82.00
28905;DHT22;60848;53.884;11.446;2022-07-09T00:49:29;17.10;82.00
28905;DHT22;60848;53.884;11.446;2022-07-09T00:51:59;17.10;81.90
28905;DHT22;60848;53.884;11.446;2022-07-09T00:54:29;17.10;81.90
28905;DHT22;60848;53.884;11.446;2022-07-09T00:56:59;17.10;81.90
28905;DHT22;60848;53.884;11.446;2022-07-09T00:59:27;17.10;82.00
28905;DHT22;60848;53.884;11.446;2022-07-09T01:01:56;17.10;82.10
28905;DHT22;60848;53.884;11.446;2022-07-09T01:04:24;17.10;82.10
28905;DHT22;60848;53.884;11.446;2022-07-09T01:06:52;17.10;82.20
28905;DHT22;60848;53.884;11.446;2022-07-09T01:09:20;17.10;82.20
28905;DHT22;60848;53.884;11.446;2022-07-09T01:11:49;17.10;82.30
28905;DHT22;60848;53.884;11.446;2022-07-09T01:14:18;17.10;82.50
28905;DHT22;60848;53.884;11.446;2022-07-09T01:16:47;17.10;82.50
28905;DHT22;60848;53.884;11.446;2022-07-09T01:19:15;17.10;82.60
28905;DHT22;60848;53.884;11.446;2022-07-09T01:21:44;17.10;82.60
28905;DHT22;60848;53.884;11.446;2022-07-09T01:24:12;17.10;82.70
28905;DHT22;60848;53.884;11.446;2022-07-09T01:26:41;17.10;82.80
28905;DHT22;60848;53.884;11.446;2022-07-09T01:29:09;17.10;82.90
28905;DHT22;60848;53.884;11.446;2022-07-09T01:31:37;17.10;82.90
28905;DHT22;60848;53.884;11.446;2022-07-09T01:34:06;17.10;83.00
28905;DHT22;60848;53.884;11.446;2022-07-09T01:36:36;17.10;83.10
28905;DHT22;60848;53.884;11.446;2022-07-09T01:39:08;17.10;83.10
28905;DHT22;60848;53.884;11.446;2022-07-09T01:41:36;17.10;83.30
28905;DHT22;60848;53.884;11.446;2022-07-09T01:44:04;17.00;83.30
28905;DHT22;60848;53.884;11.446;2022-07-09T01:46:33;17.10;83.50
28905;DHT22;60848;53.884;11.446;2022-07-09T01:49:02;17.10;83.50
28905;DHT22;60848;53.884;11.446;2022-07-09T01:51:32;17.00;83.60
28905;DHT22;60848;53.884;11.446;2022-07-09T01:54:01;17.00;83.60
28905;DHT22;60848;53.884;11.446;2022-07-09T01:56:31;17.10;83.90
28905;DHT22;60848;53.884;11.446;2022-07-09T01:59:04;17.00;83.90
28905;DHT22;60848;53.884;11.446;2022-07-09T02:01:32;17.00;84.10
28905;DHT22;60848;53.884;11.446;2022-07-09T02:04:00;17.00;84.20
28905;DHT22;60848;53.884;11.446;2022-07-09T02:06:28;17.00;84.30
28905;DHT22;60848;53.884;11.446;2022-07-09T02:08:59;17.00;84.30
28905;DHT22;60848;53.884;11.446;2022-07-09T02:11:27;17.00;84.30
28905;DHT22;60848;53.884;11.446;2022-07-09T02:13:57;17.00;84.50
28905;DHT22;60848;53.884;11.446;2022-07-09T02:16:25;17.00;84.60
28905;DHT22;60848;53.884;11.446;2022-07-09T02:18:53;17.00;84.80
28905;DHT22;60848;53.884;11.446;2022-07-09T02:21:22;17.00;84.90
28905;DHT22;60848;53.884;11.446;2022-07-09T02:23:50;17.00;85.20
28905;DHT22;60848;53.884;11.446;2022-07-09T02:26:21;17.00;85.20
28905;DHT22;60848;53.884;11.446;2022-07-09T02:28:49;17.00;85.40
28905;DHT22;60848;53.884;11.446;2022-07-09T02:31:20;17.00;85.60
28905;DHT22;60848;53.884;11.446;2022-07-09T02:33:48;17.00;85.60
28905;DHT22;60848;53.884;11.446;2022-07-09T02:36:16;17.10;85.70
28905;DHT22;60848;53.884;11.446;2022-07-09T02:38:46;17.00;85.70
28905;DHT22;60848;53.884;11.446;2022-07-09T02:41:14;17.00;85.80
28905;DHT22;60848;53.884;11.446;2022-07-09T02:43:44;17.10;86.00
28905;DHT22;60848;53.884;11.446;2022-07-09T02:46:13;17.10;86.00
28905;DHT22;60848;53.884;11.446;2022-07-09T02:48:43;17.10;86.10
28905;DHT22;60848;53.884;11.446;2022-07-09T02:51:11;17.10;86.20
28905;DHT22;60848;53.884;11.446;2022-07-09T02:53:40;17.10;86.20
28905;DHT22;60848;53.884;11.446;2022-07-09T02:56:08;17.10;86.20
28905;DHT22;60848;53.884;11.446;2022-07-09T02:58:36;17.10;86.30
28905;DHT22;60848;53.884;11.446;2022-07-09T03:01:04;17.10;86.50
28905;DHT22;60848;53.884;11.446;2022-07-09T03:03:35;17.10;86.50
28905;DHT22;60848;53.884;11.446;2022-07-09T03:06:07;17.10;86.60
28905;DHT22;60848;53.884;11.446;2022-07-09T03:08:36;17.00;86.60
28905;DHT22;60848;53.884;11.446;2022-07-09T03:11:04;17.00;86.70
28905;DHT22;60848;53.884;11.446;2022-07-09T03:13:33;17.00;86.80
28905;DHT22;60848;53.884;11.446;2022-07-09T03:16:01;17.00;86.90
28905;DHT22;60848;53.884;11.446;2022-07-09T03:18:29;17.00;87.10
28905;DHT22;60848;53.884;11.446;2022-07-09T03:20:58;17.00;87.10
28905;DHT22;60848;53.884;11.446;2022-07-09T03:23:28;17.00;87.30
28905;DHT22;60848;53.884;11.446;2022-07-09T03:25:56;17.00;87.50
28905;DHT22;60848;53.884;11.446;2022-07-09T03:28:24;17.00;87.70
28905;DHT22;60848;53.884;11.446;2022-07-09T03:30:52;17.00;87.70
28905;DHT22;60848;53.884;11.446;2022-07-09T03:33:21;17.00;87.70
28905;DHT22;60848;53.884;11.446;2022-07-09T03:35:49;17.00;87.80
28905;DHT22;60848;53.884;11.446;2022-07-09T03:38:17;17.10;87.90
28905;DHT22;60848;53.884;11.446;2022-07-09T03:40:47;17.00;88.00
28905;DHT22;60848;53.884;11.446;2022-07-09T03:43:15;17.00;88.10
28905;DHT22;60848;53.884;11.446;2022-07-09T03:45:43;16.90;88.10
28905;DHT22;60848;53.884;11.446;2022-07-09T03:48:14;16.90;88.30
28905;DHT22;60848;53.884;11.446;2022-07-09T03:50:42;16.90;88.40
28905;DHT22;60848;53.884;11.446;2022-07-09T03:53:10;16.90;88.60
28905;DHT22;60848;53.884;11.446;2022-07-09T03:55:39;16.90;89.00
28905;DHT22;60848;53.884;11.446;2022-07-09T03:58:08;16.90;89.40
28905;DHT22;60848;53.884;11.446;2022-07-09T04:00:37;16.90;89.90
28905;DHT22;60848;53.884;11.446;2022-07-09T04:03:05;16.90;90.10
28905;DHT22;60848;53.884;11.446;2022-07-09T04:05:33;16.90;90.20
28905;DHT22;60848;53.884;11.446;2022-07-09T04:08:01;16.90;90.30
28905;DHT22;60848;53.884;11.446;2022-07-09T04:10:30;16.90;90.50
28905;DHT22;60848;53.884;11.446;2022-07-09T04:12:58;16.90;90.50
28905;DHT22;60848;53.884;11.446;2022-07-09T04:15:27;16.90;90.60
28905;DHT22;60848;53.884;11.446;2022-07-09T04:17:56;16.90;90.70
28905;DHT22;60848;53.884;11.446;2022-07-09T04:20:24;16.90;90.80
28905;DHT22;60848;53.884;11.446;2022-07-09T04:22:56;16.90;90.80
28905;DHT22;60848;53.884;11.446;2022-07-09T04:25:24;16.90;90.90
28905;DHT22;60848;53.884;11.446;2022-07-09T04:27:55;16.90;91.00
28905;DHT22;60848;53.884;11.446;2022-07-09T04:30:25;16.80;91.10
28905;DHT22;60848;53.884;11.446;2022-07-09T04:32:55;16.80;91.20
28905;DHT22;60848;53.884;11.446;2022-07-09T04:35:23;16.80;91.30
28905;DHT22;60848;53.884;11.446;2022-07-09T04:37:54;16.80;91.40
28905;DHT22;60848;53.884;11.446;2022-07-09T04:40:22;16.80;91.50
28905;DHT22;60848;53.884;11.446;2022-07-09T04:42:50;16.80;91.60
28905;DHT22;60848;53.884;11.446;2022-07-09T04:45:21;16.90;91.70
28905;DHT22;60848;53.884;11.446;2022-07-09T04:47:49;16.90;91.80
28905;DHT22;60848;53.884;11.446;2022-07-09T04:50:20;16.80;91.90
28905;DHT22;60848;53.884;11.446;2022-07-09T04:52:49;16.90;92.00
28905;DHT22;60848;53.884;11.446;2022-07-09T04:55:17;16.80;92.00
28905;DHT22;60848;53.884;11.446;2022-07-09T04:57:45;16.90;92.10
28905;DHT22;60848;53.884;11.446;2022-07-09T05:00:14;16.80;92.10
28905;DHT22;60848;53.884;11.446;2022-07-09T05:02:45;16.80;92.30
28905;DHT22;60848;53.884;11.446;2022-07-09T05:05:15;16.90;92.40
28905;DHT22;60848;53.884;11.446;2022-07-09T05:07:49;16.90;92.50
28905;DHT22;60848;53.884;11.446;2022-07-09T05:10:17;16.90;92.60
28905;DHT22;60848;53.884;11.446;2022-07-09T05:12:46;16.90;92.80
28905;DHT22;60848;53.884;11.446;2022-07-09T05:15:16;16.90;92.90
28905;DHT22;60848;53.884;11.446;2022-07-09T05:17:44;16.90;93.00
28905;DHT22;60848;53.884;11.446;2022-07-09T05:20:12;16.90;93.10
28905;DHT22;60848;53.884;11.446;2022-07-09T05:22:41;17.00;93.20
28905;DHT22;60848;53.884;11.446;2022-07-09T05:25:10;17.00;93.20
28905;DHT22;60848;53.884;11.446;2022-07-09T05:27:42;17.00;93.30
28905;DHT22;60848;53.884;11.446;2022-07-09T05:30:11;17.00;93.50
28905;DHT22;60848;53.884;11.446;2022-07-09T05:32:45;17.00;93.70
28905;DHT22;60848;53.884;11.446;2022-07-09T05:35:13;17.10;94.20
28905;DHT22;60848;53.884;11.446;2022-07-09T05:37:41;17.10;94.00
28905;DHT22;60848;53.884;11.446;2022-07-09T05:40:12;17.00;94.20
28905;DHT22;60848;53.884;11.446;2022-07-09T05:42:41;17.10;94.40
28905;DHT22;60848;53.884;11.446;2022-07-09T05:45:09;17.10;94.50
28905;DHT22;60848;53.884;11.446;2022-07-09T05:47:37;17.10;94.70
28905;DHT22;60848;53.884;11.446;2022-07-09T05:50:06;17.10;94.90
28905;DHT22;60848;53.884;11.446;2022-07-09T05:52:34;17.10;95.00
28905;DHT22;60848;53.884;11.446;2022-07-09T05:55:03;17.20;95.20
28905;DHT22;60848;53.884;11.446;2022-07-09T05:57:37;17.20;95.30
28905;DHT22;60848;53.884;11.446;2022-07-09T06:00:06;17.20;95.40
28905;DHT22;60848;53.884;11.446;2022-07-09T06:02:37;17.20;95.60
28905;DHT22;60848;53.884;11.446;2022-07-09T06:05:05;17.20;95.80
28905;DHT22;60848;53.884;11.446;2022-07-09T06:07:33;17.30;95.90
28905;DHT22;60848;53.884;11.446;2022-07-09T06:10:02;17.30;95.90
28905;DHT22;60848;53.884;11.446;2022-07-09T06:12:30;17.30;96.00
28905;DHT22;60848;53.884;11.446;2022-07-09T06:15:00;17.30;96.10
28905;DHT22;60848;53.884;11.446;2022-07-09T06:17:28;17.40;96.20
28905;DHT22;60848;53.884;11.446;2022-07-09T06:19:57;17.40;96.30
28905;DHT22;60848;53.884;11.446;2022-07-09T06:22:25;17.50;96.50
28905;DHT22;60848;53.884;11.446;2022-07-09T06:24:53;17.50;96.70
28905;DHT22;60848;53.884;11.446;2022-07-09T06:27:21;17.50;96.60
28905;DHT22;60848;53.884;11.446;2022-07-09T06:29:49;17.60;96.50
28905;DHT22;60848;53.884;11.446;2022-07-09T06:32:19;17.70;96.50
28905;DHT22;60848;53.884;11.446;2022-07-09T06:34:50;17.70;96.40
28905;DHT22;60848;53.884;11.446;2022-07-09T06:37:18;17.70;96.30
28905;DHT22;60848;53.884;11.446;2022-07-09T06:39:46;17.70;96.60
28905;DHT22;60848;53.884;11.446;2022-07-09T06:42:16;17.80;96.50
28905;DHT22;60848;53.884;11.446;2022-07-09T06:44:47;17.80;96.70
28905;DHT22;60848;53.884;11.446;2022-07-09T06:47:18;18.00;96.80
28905;DHT22;60848;53.884;11.446;2022-07-09T06:49:46;18.10;97.00
28905;DHT22;60848;53.884;11.446;2022-07-09T06:52:14;18.30;97.10
28905;DHT22;60848;53.884;11.446;2022-07-09T06:54:43;18.50;97.50
28905;DHT22;60848;53.884;11.446;2022-07-09T06:57:11;18.80;97.00
28905;DHT22;60848;53.884;11.446;2022-07-09T06:59:40;19.00;95.70
28905;DHT22;60848;53.884;11.446;2022-07-09T07:02:08;19.10;94.60
28905;DHT22;60848;53.884;11.446;2022-07-09T07:04:38;19.20;93.90
28905;DHT22;60848;53.884;11.446;2022-07-09T07:07:09;19.30;93.10
28905;DHT22;60848;53.884;11.446;2022-07-09T07:09:37;19.30;92.50
28905;DHT22;60848;53.884;11.446;2022-07-09T07:12:05;19.30;92.10
28905;DHT22;60848;53.884;11.446;2022-07-09T07:14:33;19.20;91.70
28905;DHT22;60848;53.884;11.446;2022-07-09T07:17:02;19.20;91.60
28905;DHT22;60848;53.884;11.446;2022-07-09T07:19:30;19.20;91.60
28905;DHT22;60848;53.884;11.446;2022-07-09T07:22:00;19.20;91.60
28905;DHT22;60848;53.884;11.446;2022-07-09T07:24:28;19.30;91.70
28905;DHT22;60848;53.884;11.446;2022-07-09T07:26:57;19.30;91.50
28905;DHT22;60848;53.884;11.446;2022-07-09T07:29:25;19.30;91.40
28905;DHT22;60848;53.884;11.446;2022-07-09T07:31:56;19.30;91.20
28905;DHT22;60848;53.884;11.446;2022-07-09T07:34:26;19.30;91.10
28905;DHT22;60848;53.884;11.446;2022-07-09T07:36:54;19.40;91.00
28905;DHT22;60848;53.884;11.446;2022-07-09T07:39:24;19.40;91.00
28905;DHT22;60848;53.884;11.446;2022-07-09T07:41:53;19.40;90.90
28905;DHT22;60848;53.884;11.446;2022-07-09T07:44:21;19.50;90.80
28905;DHT22;60848;53.884;11.446;2022-07-09T07:46:50;19.60;90.80
28905;DHT22;60848;53.884;11.446;2022-07-09T07:49:18;19.60;90.50
28905;DHT22;60848;53.884;11.446;2022-07-09T07:51:46;19.70;90.20
28905;DHT22;60848;53.884;11.446;2022-07-09T07:54:14;19.70;89.90
28905;DHT22;60848;53.884;11.446;2022-07-09T07:56:46;19.70;89.20
28905;DHT22;60848;53.884;11.446;2022-07-09T07:59:17;19.70;88.80
28905;DHT22;60848;53.884;11.446;2022-07-09T08:01:46;19.70;88.70
28905;DHT22;60848;53.884;11.446;2022-07-09T08:04:14;19.70;88.70
28905;DHT22;60848;53.884;11.446;2022-07-09T08:06:42;19.80;88.90
28905;DHT22;60848;53.884;11.446;2022-07-09T08:09:10;19.80;88.70
28905;DHT22;60848;53.884;11.446;2022-07-09T08:11:39;19.80;88.60
28905;DHT22;60848;53.884;11.446;2022-07-09T08:14:10;19.80;88.30
28905;DHT22;60848;53.884;11.446;2022-07-09T08:16:38;19.90;88.40
28905;DHT22;60848;53.884;11.446;2022-07-09T08:19:07;20.00;88.20
28905;DHT22;60848;53.884;11.446;2022-07-09T08:21:35;20.10;87.70
28905;DHT22;60848;53.884;11.446;2022-07-09T08:24:03;20.20;86.90
28905;DHT22;60848;53.884;11.446;2022-07-09T08:26:32;20.30;86.00
28905;DHT22;60848;53.884;11.446;2022-07-09T08:29:01;20.30;85.20
28905;DHT22;60848;53.884;11.446;2022-07-09T08:31:30;20.30;84.80
28905;DHT22;60848;53.884;11.446;2022-07-09T08:34:01;20.40;85.10
28905;DHT22;60848;53.884;11.446;2022-07-09T08:36:29;20.40;84.20
28905;DHT22;60848;53.884;11.446;2022-07-09T08:38:57;20.50;83.20
28905;DHT22;60848;53.884;11.446;2022-07-09T08:41:28;20.50;81.90
28905;DHT22;60848;53.884;11.446;2022-07-09T08:43:56;20.60;81.60
28905;DHT22;60848;53.884;11.446;2022-07-09T08:46:24;20.60;81.90
28905;DHT22;60848;53.884;11.446;2022-07-09T08:48:54;20.80;82.20
28905;DHT22;60848;53.884;11.446;2022-07-09T08:51:27;21.00;82.20
28905;DHT22;60848;53.884;11.446;2022-07-09T08:53:55;21.30;81.40
28905;DHT22;60848;53.884;11.446;2022-07-09T08:56:23;21.60;79.60
28905;DHT22;60848;53.884;11.446;2022-07-09T08:58:51;21.90;77.90
28905;DHT22;60848;53.884;11.446;2022-07-09T09:01:19;22.10;76.90
28905;DHT22;60848;53.884;11.446;2022-07-09T09:03:51;22.40;74.20
28905;DHT22;60848;53.884;11.446;2022-07-09T09:06:22;22.60;71.80
28905;DHT22;60848;53.884;11.446;2022-07-09T09:08:53;22.60;70.10
28905;DHT22;60848;53.884;11.446;2022-07-09T09:11:21;22.70;69.40
28905;DHT22;60848;53.884;11.446;2022-07-09T09:13:50;22.70;69.00
28905;DHT22;60848;53.884;11.446;2022-07-09T09:16:20;22.70;68.40
28905;DHT22;60848;53.884;11.446;2022-07-09T09:18:49;22.60;67.50
28905;DHT22;60848;53.884;11.446;2022-07-09T09:21:22;22.70;67.80
28905;DHT22;60848;53.884;11.446;2022-07-09T09:23:51;22.80;67.10
28905;DHT22;60848;53.884;11.446;2022-07-09T09:26:20;22.80;66.40
28905;DHT22;60848;53.884;11.446;2022-07-09T09:28:50;22.90;65.80
28905;DHT22;60848;53.884;11.446;2022-07-09T09:31:19;22.90;65.60
28905;DHT22;60848;53.884;11.446;2022-07-09T09:33:47;23.00;65.10
28905;DHT22;60848;53.884;11.446;2022-07-09T09:36:29;23.20;64.70
28905;DHT22;60848;53.884;11.446;2022-07-09T09:41:35;23.50;63.80
28905;DHT22;60848;53.884;11.446;2022-07-09T09:44:04;23.80;64.40
28905;DHT22;60848;53.884;11.446;2022-07-09T09:46:35;24.10;63.00
28905;DHT22;60848;53.884;11.446;2022-07-09T09:49:04;24.50;61.00
28905;DHT22;60848;53.884;11.446;2022-07-09T09:51:36;24.70;60.10
28905;DHT22;60848;53.884;11.446;2022-07-09T09:54:05;24.90;58.50
28905;DHT22;60848;53.884;11.446;2022-07-09T09:56:33;25.00;57.50
28905;DHT22;60848;53.884;11.446;2022-07-09T10:01:30;25.30;55.50
28905;DHT22;60848;53.884;11.446;2022-07-09T10:03:58;25.40;55.70
28905;DHT22;60848;53.884;11.446;2022-07-09T10:06:27;25.50;55.00
28905;DHT22;60848;53.884;11.446;2022-07-09T10:08:57;25.50;54.90
28905;DHT22;60848;53.884;11.446;2022-07-09T10:11:25;25.40;55.30
28905;DHT22;60848;53.884;11.446;2022-07-09T10:13:54;25.40;55.40
28905;DHT22;60848;53.884;11.446;2022-07-09T10:16:35;25.20;55.60
28905;DHT22;60848;53.884;11.446;2022-07-09T10:19:04;24.90;55.70
28905;DHT22;60848;53.884;11.446;2022-07-09T10:21:33;24.70;55.90
28905;DHT22;60848;53.884;11.446;2022-07-09T10:24:02;24.40;56.70
28905;DHT22;60848;53.884;11.446;2022-07-09T10:29:21;24.00;58.70
28905;DHT22;60848;53.884;11.446;2022-07-09T10:31:53;24.00;59.90
28905;DHT22;60848;53.884;11.446;2022-07-09T10:34:31;24.10;59.30
28905;DHT22;60848;53.884;11.446;2022-07-09T10:37:03;24.00;59.30
28905;DHT22;60848;53.884;11.446;2022-07-09T10:39:33;24.00;59.30
28905;DHT22;60848;53.884;11.446;2022-07-09T10:42:02;24.00;59.50
28905;DHT22;60848;53.884;11.446;2022-07-09T10:44:34;24.10;59.90
28905;DHT22;60848;53.884;11.446;2022-07-09T10:47:03;24.20;58.90
28905;DHT22;60848;53.884;11.446;2022-07-09T10:49:33;24.20;58.60
28905;DHT22;60848;53.884;11.446;2022-07-09T10:52:02;24.20;58.50
28905;DHT22;60848;53.884;11.446;2022-07-09T10:54:34;24.20;57.90
28905;DHT22;60848;53.884;11.446;2022-07-09T10:57:05;24.30;57.90
28905;DHT22;60848;53.884;11.446;2022-07-09T10:59:33;24.40;57.40
28905;DHT22;60848;53.884;11.446;2022-07-09T11:02:01;24.50;57.10
28905;DHT22;60848;53.884;11.446;2022-07-09T11:04:30;24.60;57.30
28905;DHT22;60848;53.884;11.446;2022-07-09T11:06:58;24.70;57.10
28905;DHT22;60848;53.884;11.446;2022-07-09T11:09:27;24.70;55.70
28905;DHT22;60848;53.884;11.446;2022-07-09T11:11:58;24.70;56.40
28905;DHT22;60848;53.884;11.446;2022-07-09T11:14:29;24.80;56.80
28905;DHT22;60848;53.884;11.446;2022-07-09T11:16:58;24.80;56.30
28905;DHT22;60848;53.884;11.446;2022-07-09T11:19:29;24.90;56.20
28905;DHT22;60848;53.884;11.446;2022-07-09T11:22:00;25.00;55.70
28905;DHT22;60848;53.884;11.446;2022-07-09T11:24:28;24.90;55.00
28905;DHT22;60848;53.884;11.446;2022-07-09T11:27:02;24.70;56.30
28905;DHT22;60848;53.884;11.446;2022-07-09T11:29:30;24.50;56.90
28905;DHT22;60848;53.884;11.446;2022-07-09T11:31:58;24.40;57.70
28905;DHT22;60848;53.884;11.446;2022-07-09T11:34:28;24.50;57.90
28905;DHT22;60848;53.884;11.446;2022-07-09T11:36:57;24.50;58.10
28905;DHT22;60848;53.884;11.446;2022-07-09T11:39:29;24.60;58.10
28905;DHT22;60848;53.884;11.446;2022-07-09T11:41:58;24.60;57.70
28905;DHT22;60848;53.884;11.446;2022-07-09T11:44:28;24.70;56.90
28905;DHT22;60848;53.884;11.446;2022-07-09T11:47:03;24.70;56.10
28905;DHT22;60848;53.884;11.446;2022-07-09T11:49:32;24.60;56.10
28905;DHT22;60848;53.884;11.446;2022-07-09T11:52:00;24.50;56.00
28905;DHT22;60848;53.884;11.446;2022-07-09T11:54:30;24.40;56.40
28905;DHT22;60848;53.884;11.446;2022-07-09T11:56:59;24.40;57.10
28905;DHT22;60848;53.884;11.446;2022-07-09T11:59:29;24.50;57.30
28905;DHT22;60848;53.884;11.446;2022-07-09T12:01:59;24.50;56.60
28905;DHT22;60848;53.884;11.446;2022-07-09T12:04:30;24.50;56.30
28905;DHT22;60848;53.884;11.446;2022-07-09T12:07:00;24.50;56.50
28905;DHT22;60848;53.884;11.446;2022-07-09T12:09:29;24.50;56.50
28905;DHT22;60848;53.884;11.446;2022-07-09T12:11:58;24.60;56.10
28905;DHT22;60848;53.884;11.446;2022-07-09T12:14:26;24.60;55.80
28905;DHT22;60848;53.884;11.446;2022-07-09T12:16:56;24.60;55.70
28905;DHT22;60848;53.884;11.446;2022-07-09T12:19:27;24.60;54.90
28905;DHT22;60848;53.884;11.446;2022-07-09T12:21:55;24.50;55.70
28905;DHT22;60848;53.884;11.446;2022-07-09T12:24:25;24.50;55.90
28905;DHT22;60848;53.884;11.446;2022-07-09T12:26:53;24.50;56.10
28905;DHT22;60848;53.884;11.446;2022-07-09T12:29:41;24.50;55.80
28905;DHT22;60848;53.884;11.446;2022-07-09T12:32:11;24.60;55.00
28905;DHT22;60848;53.884;11.446;2022-07-09T12:34:39;24.50;54.80
28905;DHT22;60848;53.884;11.446;2022-07-09T12:37:07;24.50;54.40
28905;DHT22;60848;53.884;11.446;2022-07-09T12:39:35;24.50;54.70
28905;DHT22;60848;53.884;11.446;2022-07-09T12:42:04;24.50;54.60
28905;DHT22;60848;53.884;11.446;2022-07-09T12:44:32;24.50;54.90
28905;DHT22;60848;53.884;11.446;2022-07-09T12:47:00;24.40;54.80
28905;DHT22;60848;53.884;11.446;2022-07-09T12:49:29;24.50;55.10
28905;DHT22;60848;53.884;11.446;2022-07-09T12:51:58;24.50;55.00
28905;DHT22;60848;53.884;11.446;2022-07-09T12:54:26;24.50;55.20
28905;DHT22;60848;53.884;11.446;2022-07-09T12:56:54;24.50;54.90
28905;DHT22;60848;53.884;11.446;2022-07-09T12:59:38;24.60;54.50
28905;DHT22;60848;53.884;11.446;2022-07-09T13:02:06;24.50;54.20
28905;DHT22;60848;53.884;11.446;2022-07-09T13:04:36;24.40;54.20
28905;DHT22;60848;53.884;11.446;2022-07-09T13:07:04;24.40;54.40
28905;DHT22;60848;53.884;11.446;2022-07-09T13:09:35;24.40;54.60
28905;DHT22;60848;53.884;11.446;2022-07-09T13:12:06;24.40;55.10
28905;DHT22;60848;53.884;11.446;2022-07-09T13:14:34;24.40;54.00
28905;DHT22;60848;53.884;11.446;2022-07-09T13:17:02;24.40;54.00
28905;DHT22;60848;53.884;11.446;2022-07-09T13:19:52;24.40;53.90
28905;DHT22;60848;53.884;11.446;2022-07-09T13:22:23;24.30;53.90
28905;DHT22;60848;53.884;11.446;2022-07-09T13:24:51;24.20;53.50
28905;DHT22;60848;53.884;11.446;2022-07-09T13:27:21;24.20;53.60
28905;DHT22;60848;53.884;11.446;2022-07-09T13:32:24;24.10;53.20
28905;DHT22;60848;53.884;11.446;2022-07-09T13:34:55;24.00;54.00
28905;DHT22;60848;53.884;11.446;2022-07-09T13:37:25;23.90;54.10
28905;DHT22;60848;53.884;11.446;2022-07-09T13:39:55;23.90;54.20
28905;DHT22;60848;53.884;11.446;2022-07-09T13:42:23;23.90;54.60
28905;DHT22;60848;53.884;11.446;2022-07-09T13:44:51;23.90;54.40
28905;DHT22;60848;53.884;11.446;2022-07-09T13:47:22;23.90;54.40
28905;DHT22;60848;53.884;11.446;2022-07-09T13:49:50;23.90;54.40
28905;DHT22;60848;53.884;11.446;2022-07-09T13:52:19;23.90;54.30
28905;DHT22;60848;53.884;11.446;2022-07-09T13:54:49;23.90;54.00
28905;DHT22;60848;53.884;11.446;2022-07-09T13:57:20;23.80;54.20
28905;DHT22;60848;53.884;11.446;2022-07-09T13:59:48;23.80;54.40
28905;DHT22;60848;53.884;11.446;2022-07-09T14:02:16;23.90;54.60
28905;DHT22;60848;53.884;11.446;2022-07-09T14:04:47;23.90;54.40
28905;DHT22;60848;53.884;11.446;2022-07-09T14:07:16;23.90;54.00
28905;DHT22;60848;53.884;11.446;2022-07-09T14:09:47;23.90;53.60
28905;DHT22;60848;53.884;11.446;2022-07-09T14:12:16;23.90;53.10
28905;DHT22;60848;53.884;11.446;2022-07-09T14:14:46;24.00;52.70
28905;DHT22;60848;53.884;11.446;2022-07-09T14:17:14;24.00;51.50
28905;DHT22;60848;53.884;11.446;2022-07-09T14:19:42;24.00;50.30
28905;DHT22;60848;53.884;11.446;2022-07-09T14:22:11;23.90;48.50
28905;DHT22;60848;53.884;11.446;2022-07-09T14:24:39;23.90;48.20
28905;DHT22;60848;53.884;11.446;2022-07-09T14:27:08;23.80;48.10
28905;DHT22;60848;53.884;11.446;2022-07-09T14:29:43;23.80;47.80
28905;DHT22;60848;53.884;11.446;2022-07-09T14:32:11;23.70;48.30
28905;DHT22;60848;53.884;11.446;2022-07-09T14:34:39;23.70;48.90
28905;DHT22;60848;53.884;11.446;2022-07-09T14:37:07;23.70;48.90
28905;DHT22;60848;53.884;11.446;2022-07-09T14:39:36;23.70;48.60
28905;DHT22;60848;53.884;11.446;2022-07-09T14:42:04;23.70;48.30
28905;DHT22;60848;53.884;11.446;2022-07-09T14:44:33;23.70;48.00
28905;DHT22;60848;53.884;11.446;2022-07-09T14:47:02;23.70;47.50
28905;DHT22;60848;53.884;11.446;2022-07-09T14:49:30;23.70;47.80
28905;DHT22;60848;53.884;11.446;2022-07-09T14:51:58;23.70;49.60
28905;DHT22;60848;53.884;11.446;2022-07-09T14:56:55;23.40;50.40
28905;DHT22;60848;53.884;11.446;2022-07-09T14:59:23;23.30;51.40
28905;DHT22;60848;53.884;11.446;2022-07-09T15:01:53;23.20;52.00
28905;DHT22;60848;53.884;11.446;2022-07-09T15:04:21;23.10;52.40
28905;DHT22;60848;53.884;11.446;2022-07-09T15:06:49;23.10;52.80
28905;DHT22;60848;53.884;11.446;2022-07-09T15:09:17;23.00;52.40
28905;DHT22;60848;53.884;11.446;2022-07-09T15:11:46;22.90;52.20
28905;DHT22;60848;53.884;11.446;2022-07-09T15:14:14;22.80;52.00
28905;DHT22;60848;53.884;11.446;2022-07-09T15:16:44;22.80;51.80
28905;DHT22;60848;53.884;11.446;2022-07-09T15:19:14;22.70;51.90
28905;DHT22;60848;53.884;11.446;2022-07-09T15:21:42;22.70;51.80
28905;DHT22;60848;53.884;11.446;2022-07-09T15:24:10;22.70;51.50
28905;DHT22;60848;53.884;11.446;2022-07-09T15:26:38;22.70;51.30
28905;DHT22;60848;53.884;11.446;2022-07-09T15:29:07;22.70;50.70
28905;DHT22;60848;53.884;11.446;2022-07-09T15:31:35;22.70;50.30
28905;DHT22;60848;53.884;11.446;2022-07-09T15:34:03;22.70;50.10
28905;DHT22;60848;53.884;11.446;2022-07-09T15:36:33;22.80;49.90
28905;DHT22;60848;53.884;11.446;2022-07-09T15:39:01;22.70;50.10
28905;DHT22;60848;53.884;11.446;2022-07-09T15:41:29;22.70;49.90